DAL3030 KSLC-KLAX
Flight info
| Callsign | DAL3030 |
|---|---|
| Flight time | 1h 28m |
| Altitude | 38000 |
| Route | ZIONZ1 EHK LAKRR Q73 HAKMN ANJLL4 |
| Aircraft | B738/M-SDE2E3FGHIRWXY/LB1 |
Departure
| Time | 2026-04-20 20:36 |
|---|---|
| Airport | Salt Lake City International Airport (KSLC) |
Arrival
| Time | 2026-04-20 22:04 |
|---|---|
| Airport | Los Angeles International Airport (KLAX) |
| Time | Latitude | Longitude | Altitude | Speed | Heading |
|---|---|---|---|---|---|
| 2026-04-20 19:59 | 40.78601 | -111.98950 | 4230 ft | 0 kts | 175° |
| 2026-04-20 20:25 | 40.78602 | -111.98950 | 4230 ft | 1 kts | 175° |
| 2026-04-20 20:25 | 40.78626 | -111.98953 | 4229 ft | 3 kts | 175° |
| 2026-04-20 20:26 | 40.78646 | -111.98954 | 4229 ft | 4 kts | 199° |
| 2026-04-20 20:26 | 40.78664 | -111.98939 | 4230 ft | 4 kts | 220° |
| 2026-04-20 20:26 | 40.78675 | -111.98927 | 4229 ft | 0 kts | 220° |
| 2026-04-20 20:28 | 40.78675 | -111.98928 | 4229 ft | 0 kts | 231° |
| 2026-04-20 20:28 | 40.78674 | -111.98943 | 4229 ft | 4 kts | 264° |
| 2026-04-20 20:29 | 40.78671 | -111.98995 | 4229 ft | 8 kts | 265° |
| 2026-04-20 20:29 | 40.78666 | -111.99080 | 4230 ft | 10 kts | 265° |
| 2026-04-20 20:29 | 40.78659 | -111.99184 | 4230 ft | 12 kts | 264° |
| 2026-04-20 20:29 | 40.78650 | -111.99304 | 4230 ft | 14 kts | 268° |
| 2026-04-20 20:30 | 40.78665 | -111.99397 | 4230 ft | 9 kts | 293° |
| 2026-04-20 20:30 | 40.78708 | -111.99460 | 4230 ft | 11 kts | 331° |
| 2026-04-20 20:30 | 40.78800 | -111.99482 | 4231 ft | 16 kts | 354° |
| 2026-04-20 20:30 | 40.78926 | -111.99496 | 4230 ft | 20 kts | 355° |
| 2026-04-20 20:31 | 40.79064 | -111.99512 | 4230 ft | 20 kts | 355° |
| 2026-04-20 20:31 | 40.79197 | -111.99528 | 4230 ft | 19 kts | 354° |
| 2026-04-20 20:31 | 40.79328 | -111.99543 | 4230 ft | 19 kts | 355° |
| 2026-04-20 20:31 | 40.79469 | -111.99559 | 4230 ft | 21 kts | 355° |
| 2026-04-20 20:32 | 40.79625 | -111.99577 | 4229 ft | 24 kts | 355° |
| 2026-04-20 20:32 | 40.79797 | -111.99597 | 4230 ft | 26 kts | 354° |
| 2026-04-20 20:32 | 40.79978 | -111.99619 | 4230 ft | 27 kts | 354° |
| 2026-04-20 20:32 | 40.80170 | -111.99641 | 4230 ft | 27 kts | 354° |
| 2026-04-20 20:33 | 40.80354 | -111.99662 | 4230 ft | 26 kts | 354° |
| 2026-04-20 20:33 | 40.80525 | -111.99684 | 4230 ft | 24 kts | 355° |
| 2026-04-20 20:33 | 40.80686 | -111.99701 | 4230 ft | 22 kts | 355° |
| 2026-04-20 20:33 | 40.80771 | -111.99759 | 4230 ft | 11 kts | 277° |
| 2026-04-20 20:34 | 40.80771 | -111.99781 | 4230 ft | 0 kts | 266° |
| 2026-04-20 20:34 | 40.80770 | -111.99782 | 4230 ft | 1 kts | 265° |
| 2026-04-20 20:34 | 40.80768 | -111.99828 | 4229 ft | 9 kts | 266° |
| 2026-04-20 20:35 | 40.80750 | -111.99917 | 4230 ft | 11 kts | 221° |
| 2026-04-20 20:35 | 40.80649 | -111.99918 | 4230 ft | 33 kts | 175° |
| 2026-04-20 20:35 | 40.80163 | -111.99861 | 4231 ft | 105 kts | 175° |
| 2026-04-20 20:35 | 40.79231 | -111.99749 | 4263 ft | 159 kts | 176° |
| 2026-04-20 20:36 | 40.78033 | -111.99541 | 4693 ft | 187 kts | 173° |
| 2026-04-20 20:36 | 40.76708 | -111.99342 | 5402 ft | 197 kts | 175° |
| 2026-04-20 20:36 | 40.75336 | -111.99149 | 6045 ft | 206 kts | 176° |
| 2026-04-20 20:36 | 40.73877 | -111.98937 | 6572 ft | 215 kts | 175° |
| 2026-04-20 20:37 | 40.72354 | -111.98716 | 6997 ft | 226 kts | 175° |
| 2026-04-20 20:37 | 40.70757 | -111.98496 | 7338 ft | 238 kts | 176° |
| 2026-04-20 20:37 | 40.69036 | -111.98279 | 7673 ft | 259 kts | 177° |
| 2026-04-20 20:37 | 40.67208 | -111.98060 | 8380 ft | 267 kts | 177° |
| 2026-04-20 20:38 | 40.65336 | -111.97803 | 9134 ft | 272 kts | 176° |
| 2026-04-20 20:38 | 40.63459 | -111.97546 | 9475 ft | 267 kts | 177° |
| 2026-04-20 20:38 | 40.61625 | -111.97299 | 9683 ft | 266 kts | 178° |
| 2026-04-20 20:38 | 40.59726 | -111.97045 | 10033 ft | 280 kts | 176° |
| 2026-04-20 20:39 | 40.57781 | -111.96785 | 10566 ft | 293 kts | 176° |
| 2026-04-20 20:39 | 40.55675 | -111.96500 | 10819 ft | 315 kts | 176° |
| 2026-04-20 20:39 | 40.53436 | -111.96194 | 11264 ft | 328 kts | 176° |
| 2026-04-20 20:39 | 40.51171 | -111.95886 | 12072 ft | 328 kts | 177° |
| 2026-04-20 20:40 | 40.48891 | -111.95579 | 12805 ft | 333 kts | 176° |
| 2026-04-20 20:40 | 40.46561 | -111.95271 | 13447 ft | 338 kts | 176° |
| 2026-04-20 20:40 | 40.44196 | -111.95006 | 14095 ft | 343 kts | 179° |
| 2026-04-20 20:40 | 40.41810 | -111.94848 | 14831 ft | 344 kts | 180° |
| 2026-04-20 20:41 | 40.39402 | -111.94711 | 15480 ft | 348 kts | 179° |
| 2026-04-20 20:41 | 40.36971 | -111.94566 | 16183 ft | 351 kts | 179° |
| 2026-04-20 20:41 | 40.34544 | -111.94409 | 16806 ft | 356 kts | 179° |
| 2026-04-20 20:41 | 40.32046 | -111.94240 | 17422 ft | 361 kts | 179° |
| 2026-04-20 20:42 | 40.29519 | -111.94066 | 18146 ft | 363 kts | 179° |
| 2026-04-20 20:42 | 40.26984 | -111.93917 | 18712 ft | 367 kts | 181° |
| 2026-04-20 20:42 | 40.24416 | -111.94143 | 19167 ft | 372 kts | 189° |
| 2026-04-20 20:42 | 40.21856 | -111.94597 | 19670 ft | 377 kts | 189° |
| 2026-04-20 20:43 | 40.19241 | -111.95060 | 20219 ft | 381 kts | 189° |
| 2026-04-20 20:43 | 40.16604 | -111.95499 | 20763 ft | 384 kts | 189° |
| 2026-04-20 20:43 | 40.13926 | -111.95927 | 21285 ft | 388 kts | 189° |
| 2026-04-20 20:43 | 40.11234 | -111.96338 | 21786 ft | 392 kts | 189° |
| 2026-04-20 20:44 | 40.08501 | -111.96744 | 22273 ft | 396 kts | 189° |
| 2026-04-20 20:44 | 40.05750 | -111.97147 | 22711 ft | 400 kts | 189° |
| 2026-04-20 20:44 | 40.02968 | -111.97553 | 23197 ft | 403 kts | 189° |
| 2026-04-20 20:44 | 40.00164 | -111.97962 | 23643 ft | 407 kts | 189° |
| 2026-04-20 20:45 | 39.97331 | -111.98375 | 24052 ft | 410 kts | 189° |
| 2026-04-20 20:45 | 39.94517 | -111.98785 | 24469 ft | 413 kts | 189° |
| 2026-04-20 20:45 | 39.91651 | -111.99202 | 24880 ft | 415 kts | 189° |
| 2026-04-20 20:45 | 39.88770 | -111.99622 | 25281 ft | 418 kts | 189° |
| 2026-04-20 20:46 | 39.85867 | -112.00045 | 25669 ft | 421 kts | 189° |
| 2026-04-20 20:46 | 39.82938 | -112.00472 | 26048 ft | 424 kts | 189° |
| 2026-04-20 20:46 | 39.79987 | -112.00901 | 26405 ft | 427 kts | 189° |
| 2026-04-20 20:46 | 39.77018 | -112.01332 | 26778 ft | 430 kts | 189° |
| 2026-04-20 20:47 | 39.74037 | -112.01764 | 27154 ft | 432 kts | 189° |
| 2026-04-20 20:47 | 39.71036 | -112.02199 | 27507 ft | 435 kts | 189° |
| 2026-04-20 20:47 | 39.68023 | -112.02635 | 27880 ft | 437 kts | 189° |
| 2026-04-20 20:47 | 39.65034 | -112.03067 | 28196 ft | 440 kts | 189° |
| 2026-04-20 20:48 | 39.61975 | -112.03509 | 28513 ft | 443 kts | 189° |
| 2026-04-20 20:48 | 39.58901 | -112.03952 | 28810 ft | 446 kts | 189° |
| 2026-04-20 20:48 | 39.55807 | -112.04397 | 29134 ft | 449 kts | 188° |
| 2026-04-20 20:48 | 39.52697 | -112.04843 | 29458 ft | 451 kts | 189° |
| 2026-04-20 20:49 | 39.49567 | -112.05293 | 29772 ft | 453 kts | 189° |
| 2026-04-20 20:49 | 39.46421 | -112.05748 | 30065 ft | 456 kts | 188° |
| 2026-04-20 20:49 | 39.43256 | -112.06201 | 30301 ft | 458 kts | 188° |
| 2026-04-20 20:49 | 39.40077 | -112.06657 | 30528 ft | 460 kts | 189° |
| 2026-04-20 20:50 | 39.36886 | -112.07112 | 30773 ft | 462 kts | 188° |
| 2026-04-20 20:50 | 39.33686 | -112.07566 | 31137 ft | 461 kts | 188° |
| 2026-04-20 20:50 | 39.30538 | -112.08010 | 31516 ft | 459 kts | 189° |
| 2026-04-20 20:50 | 39.27363 | -112.08458 | 31863 ft | 459 kts | 189° |
| 2026-04-20 20:51 | 39.24186 | -112.08905 | 32156 ft | 460 kts | 189° |
| 2026-04-20 20:51 | 39.21000 | -112.09353 | 32470 ft | 460 kts | 189° |
| 2026-04-20 20:51 | 39.17818 | -112.09803 | 32804 ft | 460 kts | 189° |
| 2026-04-20 20:51 | 39.14659 | -112.10474 | 33054 ft | 459 kts | 197° |
| 2026-04-20 20:52 | 39.11637 | -112.11749 | 33397 ft | 455 kts | 206° |
| 2026-04-20 20:52 | 39.08827 | -112.13601 | 33765 ft | 451 kts | 213° |
| 2026-04-20 20:52 | 39.06112 | -112.15624 | 34116 ft | 450 kts | 213° |
| 2026-04-20 20:52 | 39.03411 | -112.17650 | 34380 ft | 450 kts | 213° |
| 2026-04-20 20:53 | 39.00734 | -112.19649 | 34645 ft | 450 kts | 213° |
| 2026-04-20 20:53 | 38.98023 | -112.21656 | 34913 ft | 450 kts | 213° |
| 2026-04-20 20:53 | 38.95306 | -112.23649 | 35185 ft | 449 kts | 213° |
| 2026-04-20 20:53 | 38.92553 | -112.25658 | 35423 ft | 450 kts | 213° |
| 2026-04-20 20:54 | 38.89825 | -112.27643 | 35602 ft | 451 kts | 213° |
| 2026-04-20 20:54 | 38.87098 | -112.29622 | 35840 ft | 451 kts | 213° |
| 2026-04-20 20:54 | 38.84393 | -112.31580 | 36100 ft | 450 kts | 213° |
| 2026-04-20 20:54 | 38.81663 | -112.33556 | 36340 ft | 449 kts | 213° |
| 2026-04-20 20:55 | 38.78943 | -112.35523 | 36546 ft | 450 kts | 213° |
| 2026-04-20 20:55 | 38.76217 | -112.37494 | 36768 ft | 449 kts | 213° |
| 2026-04-20 20:55 | 38.73492 | -112.39463 | 36972 ft | 449 kts | 213° |
| 2026-04-20 20:55 | 38.70772 | -112.41425 | 37157 ft | 449 kts | 213° |
| 2026-04-20 20:56 | 38.68048 | -112.43390 | 37319 ft | 450 kts | 213° |
| 2026-04-20 20:56 | 38.65311 | -112.45363 | 37440 ft | 451 kts | 213° |
| 2026-04-20 20:56 | 38.62609 | -112.47307 | 37670 ft | 449 kts | 213° |
| 2026-04-20 20:56 | 38.59889 | -112.49261 | 37994 ft | 447 kts | 213° |
| 2026-04-20 20:57 | 38.54431 | -112.53182 | 37992 ft | 450 kts | 213° |
| 2026-04-20 20:57 | 38.48984 | -112.57087 | 37998 ft | 447 kts | 213° |
| 2026-04-20 20:58 | 38.43573 | -112.60958 | 37997 ft | 444 kts | 213° |
| 2026-04-20 20:58 | 38.38196 | -112.64799 | 38013 ft | 442 kts | 213° |
| 2026-04-20 20:59 | 38.32840 | -112.68619 | 38023 ft | 440 kts | 213° |
| 2026-04-20 20:59 | 38.27525 | -112.72405 | 38016 ft | 440 kts | 213° |
| 2026-04-20 21:00 | 38.22162 | -112.76217 | 38019 ft | 442 kts | 213° |
| 2026-04-20 21:00 | 38.16778 | -112.80039 | 38000 ft | 444 kts | 212° |
| 2026-04-20 21:01 | 38.11363 | -112.83876 | 37998 ft | 447 kts | 212° |
| 2026-04-20 21:01 | 38.05909 | -112.87738 | 37977 ft | 450 kts | 212° |
| 2026-04-20 21:02 | 38.00421 | -112.91606 | 37988 ft | 452 kts | 213° |
| 2026-04-20 21:02 | 37.94912 | -112.95482 | 38035 ft | 453 kts | 213° |
| 2026-04-20 21:03 | 37.89432 | -112.99336 | 38070 ft | 454 kts | 212° |
| 2026-04-20 21:03 | 37.83903 | -113.03211 | 38102 ft | 454 kts | 212° |
| 2026-04-20 21:04 | 37.78385 | -113.07080 | 38129 ft | 453 kts | 212° |
| 2026-04-20 21:04 | 37.72934 | -113.11040 | 38134 ft | 451 kts | 213° |
| 2026-04-20 21:05 | 37.67531 | -113.15036 | 38134 ft | 449 kts | 212° |
| 2026-04-20 21:05 | 37.62139 | -113.19006 | 38133 ft | 447 kts | 212° |
| 2026-04-20 21:06 | 37.56794 | -113.22915 | 38106 ft | 446 kts | 213° |
| 2026-04-20 21:06 | 37.51427 | -113.26832 | 38057 ft | 445 kts | 213° |
| 2026-04-20 21:07 | 37.46068 | -113.30730 | 38032 ft | 444 kts | 212° |
| 2026-04-20 21:07 | 37.40731 | -113.34602 | 37978 ft | 445 kts | 213° |
| 2026-04-20 21:08 | 37.35360 | -113.38490 | 37974 ft | 445 kts | 212° |
| 2026-04-20 21:08 | 37.29983 | -113.42382 | 37971 ft | 446 kts | 212° |
| 2026-04-20 21:09 | 37.24593 | -113.46282 | 38000 ft | 447 kts | 213° |
| 2026-04-20 21:09 | 37.19190 | -113.50185 | 37996 ft | 448 kts | 213° |
| 2026-04-20 21:10 | 37.13825 | -113.54042 | 38002 ft | 447 kts | 212° |
| 2026-04-20 21:10 | 37.08427 | -113.57926 | 38016 ft | 447 kts | 213° |
| 2026-04-20 21:11 | 37.03042 | -113.61795 | 38015 ft | 446 kts | 212° |
| 2026-04-20 21:11 | 36.97653 | -113.65650 | 37999 ft | 446 kts | 212° |
| 2026-04-20 21:12 | 36.93177 | -113.68851 | 37997 ft | 445 kts | 211° |
| 2026-04-20 21:12 | 36.87800 | -113.72689 | 37980 ft | 445 kts | 211° |
| 2026-04-20 21:13 | 36.82431 | -113.76521 | 37978 ft | 444 kts | 211° |
| 2026-04-20 21:13 | 36.77070 | -113.80337 | 37946 ft | 443 kts | 211° |
| 2026-04-20 21:14 | 36.71721 | -113.84142 | 37939 ft | 442 kts | 211° |
| 2026-04-20 21:14 | 36.66393 | -113.87923 | 37932 ft | 440 kts | 211° |
| 2026-04-20 21:15 | 36.61082 | -113.91684 | 37924 ft | 438 kts | 211° |
| 2026-04-20 21:15 | 36.55784 | -113.95432 | 37930 ft | 437 kts | 211° |
| 2026-04-20 21:16 | 36.50527 | -113.99148 | 37925 ft | 437 kts | 210° |
| 2026-04-20 21:16 | 36.45236 | -114.02878 | 37915 ft | 437 kts | 211° |
| 2026-04-20 21:17 | 36.39944 | -114.06604 | 37902 ft | 437 kts | 211° |
| 2026-04-20 21:17 | 36.34645 | -114.10327 | 37904 ft | 437 kts | 210° |
| 2026-04-20 21:18 | 36.29344 | -114.14046 | 37884 ft | 438 kts | 210° |
| 2026-04-20 21:18 | 36.24074 | -114.17737 | 37885 ft | 438 kts | 210° |
| 2026-04-20 21:19 | 36.18766 | -114.21447 | 37884 ft | 437 kts | 210° |
| 2026-04-20 21:20 | 36.10814 | -114.27002 | 37885 ft | 437 kts | 211° |
| 2026-04-20 21:20 | 36.06119 | -114.31704 | 37873 ft | 436 kts | 229° |
| 2026-04-20 21:21 | 36.02125 | -114.37330 | 37877 ft | 436 kts | 229° |
| 2026-04-20 21:21 | 35.98143 | -114.42965 | 37877 ft | 435 kts | 229° |
| 2026-04-20 21:22 | 35.94140 | -114.48545 | 37889 ft | 434 kts | 228° |
| 2026-04-20 21:22 | 35.90129 | -114.54087 | 37908 ft | 432 kts | 228° |
| 2026-04-20 21:23 | 35.86126 | -114.59601 | 37922 ft | 430 kts | 227° |
| 2026-04-20 21:23 | 35.82159 | -114.65057 | 37912 ft | 429 kts | 227° |
| 2026-04-20 21:24 | 35.78170 | -114.70537 | 37908 ft | 429 kts | 228° |
| 2026-04-20 21:24 | 35.74181 | -114.76006 | 37909 ft | 429 kts | 228° |
| 2026-04-20 21:25 | 35.70186 | -114.81472 | 37930 ft | 430 kts | 227° |
| 2026-04-20 21:25 | 35.66185 | -114.86946 | 37934 ft | 430 kts | 227° |
| 2026-04-20 21:26 | 35.62188 | -114.92433 | 37939 ft | 431 kts | 227° |
| 2026-04-20 21:26 | 35.58180 | -114.97930 | 37937 ft | 431 kts | 228° |
| 2026-04-20 21:27 | 35.54187 | -115.03385 | 37959 ft | 432 kts | 227° |
| 2026-04-20 21:27 | 35.50172 | -115.08868 | 37945 ft | 430 kts | 227° |
| 2026-04-20 21:28 | 35.46121 | -115.14201 | 37948 ft | 423 kts | 226° |
| 2026-04-20 21:28 | 35.42103 | -115.19417 | 37975 ft | 420 kts | 225° |
| 2026-04-20 21:29 | 35.38102 | -115.24614 | 37979 ft | 424 kts | 226° |
| 2026-04-20 21:29 | 35.34027 | -115.29903 | 37984 ft | 430 kts | 225° |
| 2026-04-20 21:30 | 35.29901 | -115.35259 | 37975 ft | 432 kts | 226° |
| 2026-04-20 21:30 | 35.25804 | -115.40574 | 37970 ft | 424 kts | 225° |
| 2026-04-20 21:31 | 35.21784 | -115.45778 | 37982 ft | 418 kts | 225° |
| 2026-04-20 21:31 | 35.17815 | -115.50902 | 37984 ft | 417 kts | 225° |
| 2026-04-20 21:32 | 35.13807 | -115.56073 | 37997 ft | 420 kts | 226° |
| 2026-04-20 21:32 | 35.09765 | -115.61275 | 37986 ft | 423 kts | 225° |
| 2026-04-20 21:33 | 35.05700 | -115.66486 | 37976 ft | 423 kts | 225° |
| 2026-04-20 21:33 | 35.01640 | -115.71667 | 37972 ft | 421 kts | 225° |
| 2026-04-20 21:34 | 34.97613 | -115.76798 | 37957 ft | 420 kts | 225° |
| 2026-04-20 21:34 | 34.93582 | -115.81929 | 37957 ft | 418 kts | 225° |
| 2026-04-20 21:35 | 34.89559 | -115.87041 | 37955 ft | 417 kts | 225° |
| 2026-04-20 21:35 | 34.85540 | -115.92138 | 37942 ft | 417 kts | 225° |
| 2026-04-20 21:36 | 34.81521 | -115.97226 | 37952 ft | 417 kts | 225° |
| 2026-04-20 21:36 | 34.77497 | -116.02321 | 37871 ft | 418 kts | 225° |
| 2026-04-20 21:36 | 34.75490 | -116.04868 | 37385 ft | 423 kts | 225° |
| 2026-04-20 21:37 | 34.73467 | -116.07452 | 36837 ft | 420 kts | 225° |
| 2026-04-20 21:37 | 34.71457 | -116.10021 | 36315 ft | 418 kts | 225° |
| 2026-04-20 21:37 | 34.69445 | -116.12589 | 35743 ft | 418 kts | 225° |
| 2026-04-20 21:37 | 34.67437 | -116.15148 | 35130 ft | 419 kts | 225° |
| 2026-04-20 21:38 | 34.65424 | -116.17706 | 34527 ft | 419 kts | 225° |
| 2026-04-20 21:38 | 34.63405 | -116.20270 | 33906 ft | 421 kts | 225° |
| 2026-04-20 21:38 | 34.61371 | -116.22850 | 33171 ft | 423 kts | 225° |
| 2026-04-20 21:38 | 34.59333 | -116.25432 | 32490 ft | 423 kts | 225° |
| 2026-04-20 21:39 | 34.57324 | -116.27976 | 31866 ft | 423 kts | 225° |
| 2026-04-20 21:39 | 34.55296 | -116.30542 | 31404 ft | 419 kts | 225° |
| 2026-04-20 21:39 | 34.53291 | -116.33078 | 30941 ft | 415 kts | 225° |
| 2026-04-20 21:39 | 34.51300 | -116.35595 | 30467 ft | 412 kts | 225° |
| 2026-04-20 21:40 | 34.49318 | -116.38097 | 30002 ft | 409 kts | 225° |
| 2026-04-20 21:40 | 34.47352 | -116.40574 | 29466 ft | 405 kts | 225° |
| 2026-04-20 21:40 | 34.45406 | -116.43028 | 28975 ft | 401 kts | 225° |
| 2026-04-20 21:40 | 34.43487 | -116.45449 | 28501 ft | 397 kts | 225° |
| 2026-04-20 21:41 | 34.41641 | -116.47905 | 28024 ft | 393 kts | 232° |
| 2026-04-20 21:41 | 34.40326 | -116.50801 | 27606 ft | 391 kts | 243° |
| 2026-04-20 21:41 | 34.39173 | -116.53760 | 27114 ft | 388 kts | 243° |
| 2026-04-20 21:41 | 34.37996 | -116.56688 | 26663 ft | 385 kts | 242° |
| 2026-04-20 21:42 | 34.36813 | -116.59577 | 26207 ft | 382 kts | 242° |
| 2026-04-20 21:42 | 34.35631 | -116.62442 | 25740 ft | 379 kts | 242° |
| 2026-04-20 21:42 | 34.34454 | -116.65289 | 25259 ft | 375 kts | 242° |
| 2026-04-20 21:42 | 34.33306 | -116.68072 | 24849 ft | 364 kts | 242° |
| 2026-04-20 21:43 | 34.32218 | -116.70757 | 24408 ft | 355 kts | 243° |
| 2026-04-20 21:43 | 34.30989 | -116.73316 | 23778 ft | 351 kts | 229° |
| 2026-04-20 21:43 | 34.29165 | -116.75258 | 23095 ft | 349 kts | 215° |
| 2026-04-20 21:43 | 34.27124 | -116.76829 | 22537 ft | 343 kts | 212° |
| 2026-04-20 21:44 | 34.25103 | -116.78288 | 22174 ft | 333 kts | 212° |
| 2026-04-20 21:44 | 34.23138 | -116.79683 | 21904 ft | 323 kts | 211° |
| 2026-04-20 21:44 | 34.21212 | -116.81045 | 21672 ft | 318 kts | 211° |
| 2026-04-20 21:44 | 34.19432 | -116.82583 | 21486 ft | 313 kts | 227° |
| 2026-04-20 21:45 | 34.18287 | -116.84768 | 21206 ft | 314 kts | 250° |
| 2026-04-20 21:45 | 34.17870 | -116.87346 | 20965 ft | 318 kts | 265° |
| 2026-04-20 21:45 | 34.18137 | -116.90040 | 20684 ft | 334 kts | 283° |
| 2026-04-20 21:45 | 34.19016 | -116.92715 | 20353 ft | 350 kts | 290° |
| 2026-04-20 21:46 | 34.20022 | -116.95399 | 19962 ft | 351 kts | 290° |
| 2026-04-20 21:46 | 34.20708 | -116.98182 | 19530 ft | 342 kts | 269° |
| 2026-04-20 21:46 | 34.20459 | -117.00979 | 19229 ft | 331 kts | 253° |
| 2026-04-20 21:46 | 34.19789 | -117.03617 | 18865 ft | 327 kts | 249° |
| 2026-04-20 21:47 | 34.19045 | -117.06200 | 18537 ft | 325 kts | 248° |
| 2026-04-20 21:47 | 34.18309 | -117.08786 | 18129 ft | 325 kts | 249° |
| 2026-04-20 21:47 | 34.17602 | -117.11344 | 17760 ft | 323 kts | 249° |
| 2026-04-20 21:47 | 34.16891 | -117.13950 | 17372 ft | 322 kts | 249° |
| 2026-04-20 21:48 | 34.16212 | -117.16450 | 17090 ft | 312 kts | 249° |
| 2026-04-20 21:48 | 34.15531 | -117.18939 | 16760 ft | 312 kts | 249° |
| 2026-04-20 21:48 | 34.14849 | -117.21419 | 16413 ft | 311 kts | 249° |
| 2026-04-20 21:48 | 34.14168 | -117.23889 | 16066 ft | 309 kts | 249° |
| 2026-04-20 21:49 | 34.13489 | -117.26346 | 15735 ft | 307 kts | 249° |
| 2026-04-20 21:49 | 34.12816 | -117.28783 | 15404 ft | 305 kts | 249° |
| 2026-04-20 21:49 | 34.12147 | -117.31206 | 15076 ft | 303 kts | 249° |
| 2026-04-20 21:49 | 34.11481 | -117.33621 | 14752 ft | 302 kts | 249° |
| 2026-04-20 21:50 | 34.10819 | -117.36019 | 14423 ft | 300 kts | 249° |
| 2026-04-20 21:50 | 34.10169 | -117.38410 | 14079 ft | 300 kts | 250° |
| 2026-04-20 21:50 | 34.09567 | -117.40828 | 13731 ft | 300 kts | 251° |
| 2026-04-20 21:50 | 34.08978 | -117.43228 | 13383 ft | 296 kts | 251° |
| 2026-04-20 21:51 | 34.08390 | -117.45605 | 12998 ft | 292 kts | 251° |
| 2026-04-20 21:51 | 34.07824 | -117.47882 | 12994 ft | 278 kts | 251° |
| 2026-04-20 21:51 | 34.07268 | -117.50104 | 12671 ft | 277 kts | 250° |
| 2026-04-20 21:51 | 34.06704 | -117.52325 | 12386 ft | 275 kts | 250° |
| 2026-04-20 21:52 | 34.06149 | -117.54499 | 12092 ft | 274 kts | 250° |
| 2026-04-20 21:52 | 34.05587 | -117.56692 | 11799 ft | 273 kts | 250° |
| 2026-04-20 21:52 | 34.05027 | -117.58874 | 11514 ft | 272 kts | 250° |
| 2026-04-20 21:52 | 34.04469 | -117.61051 | 11226 ft | 271 kts | 250° |
| 2026-04-20 21:53 | 34.03914 | -117.63220 | 10963 ft | 270 kts | 250° |
| 2026-04-20 21:53 | 34.03365 | -117.65362 | 10799 ft | 264 kts | 250° |
| 2026-04-20 21:53 | 34.02836 | -117.67434 | 10731 ft | 253 kts | 250° |
| 2026-04-20 21:53 | 34.02332 | -117.69406 | 10634 ft | 241 kts | 250° |
| 2026-04-20 21:54 | 34.01986 | -117.71376 | 10508 ft | 241 kts | 261° |
| 2026-04-20 21:54 | 34.01823 | -117.73417 | 10217 ft | 247 kts | 261° |
| 2026-04-20 21:54 | 34.01646 | -117.75456 | 9945 ft | 248 kts | 261° |
| 2026-04-20 21:54 | 34.01457 | -117.77528 | 9633 ft | 249 kts | 261° |
| 2026-04-20 21:55 | 34.01263 | -117.79600 | 9324 ft | 248 kts | 260° |
| 2026-04-20 21:55 | 34.01068 | -117.81643 | 9011 ft | 243 kts | 260° |
| 2026-04-20 21:55 | 34.00876 | -117.83646 | 8726 ft | 238 kts | 260° |
| 2026-04-20 21:55 | 34.00684 | -117.85610 | 8447 ft | 235 kts | 259° |
| 2026-04-20 21:56 | 34.00491 | -117.87571 | 8207 ft | 235 kts | 260° |
| 2026-04-20 21:56 | 34.00301 | -117.89525 | 7952 ft | 234 kts | 261° |
| 2026-04-20 21:56 | 34.00156 | -117.91471 | 7787 ft | 231 kts | 263° |
| 2026-04-20 21:56 | 34.00047 | -117.93420 | 7533 ft | 236 kts | 263° |
| 2026-04-20 21:57 | 33.99890 | -117.95397 | 7246 ft | 238 kts | 260° |
| 2026-04-20 21:57 | 33.99699 | -117.97385 | 6947 ft | 240 kts | 259° |
| 2026-04-20 21:57 | 33.99494 | -117.99374 | 6654 ft | 237 kts | 259° |
| 2026-04-20 21:57 | 33.99288 | -118.01328 | 6325 ft | 232 kts | 260° |
| 2026-04-20 21:58 | 33.99087 | -118.03214 | 6054 ft | 230 kts | 260° |
| 2026-04-20 21:58 | 33.98885 | -118.05131 | 5745 ft | 231 kts | 260° |
| 2026-04-20 21:58 | 33.98681 | -118.07044 | 5433 ft | 229 kts | 261° |
| 2026-04-20 21:58 | 33.98482 | -118.08926 | 5133 ft | 221 kts | 260° |
| 2026-04-20 21:59 | 33.98357 | -118.10115 | 4942 ft | 212 kts | 261° |
| 2026-04-20 21:59 | 33.98178 | -118.11832 | 4699 ft | 203 kts | 260° |
| 2026-04-20 21:59 | 33.98000 | -118.13508 | 4409 ft | 201 kts | 262° |
| 2026-04-20 21:59 | 33.97822 | -118.15191 | 4142 ft | 203 kts | 261° |
| 2026-04-20 22:00 | 33.97642 | -118.16881 | 3886 ft | 202 kts | 261° |
| 2026-04-20 22:00 | 33.97466 | -118.18559 | 3626 ft | 202 kts | 261° |
| 2026-04-20 22:00 | 33.97289 | -118.20236 | 3362 ft | 201 kts | 262° |
| 2026-04-20 22:00 | 33.97117 | -118.21889 | 3100 ft | 195 kts | 262° |
| 2026-04-20 22:01 | 33.96953 | -118.23463 | 2842 ft | 184 kts | 262° |
| 2026-04-20 22:01 | 33.96795 | -118.24970 | 2608 ft | 180 kts | 263° |
| 2026-04-20 22:01 | 33.96640 | -118.26448 | 2382 ft | 179 kts | 263° |
| 2026-04-20 22:01 | 33.96486 | -118.27925 | 2146 ft | 176 kts | 262° |
| 2026-04-20 22:02 | 33.96336 | -118.29368 | 1927 ft | 170 kts | 261° |
| 2026-04-20 22:02 | 33.96195 | -118.30727 | 1713 ft | 153 kts | 262° |
| 2026-04-20 22:02 | 33.96067 | -118.31959 | 1534 ft | 144 kts | 261° |
| 2026-04-20 22:02 | 33.95940 | -118.33164 | 1286 ft | 145 kts | 262° |
| 2026-04-20 22:03 | 33.95819 | -118.34336 | 1108 ft | 139 kts | 262° |
| 2026-04-20 22:03 | 33.95703 | -118.35479 | 943 ft | 137 kts | 264° |
| 2026-04-20 22:03 | 33.95572 | -118.36631 | 763 ft | 139 kts | 262° |
| 2026-04-20 22:03 | 33.95441 | -118.37778 | 558 ft | 136 kts | 271° |
| 2026-04-20 22:04 | 33.95340 | -118.38889 | 360 ft | 130 kts | 266° |
| 2026-04-20 22:04 | 33.95238 | -118.39927 | 161 ft | 121 kts | 266° |
| 2026-04-20 22:04 | 33.95139 | -118.40849 | 94 ft | 100 kts | 267° |
| 2026-04-20 22:04 | 33.95078 | -118.41502 | 95 ft | 49 kts | 263° |
| 2026-04-20 22:05 | 33.95039 | -118.41875 | 93 ft | 43 kts | 262° |
| 2026-04-20 22:05 | 33.94955 | -118.42172 | 95 ft | 29 kts | 231° |
| 2026-04-20 22:05 | 33.94878 | -118.42258 | 97 ft | 0 kts | 210° |
| 2026-04-20 22:07 | 33.94851 | -118.42272 | 97 ft | 8 kts | 199° |
| 2026-04-20 22:07 | 33.94767 | -118.42280 | 96 ft | 16 kts | 175° |
| 2026-04-20 22:08 | 33.94686 | -118.42196 | 93 ft | 18 kts | 86° |
| 2026-04-20 22:08 | 33.94703 | -118.42032 | 93 ft | 20 kts | 83° |
| 2026-04-20 22:08 | 33.94719 | -118.41868 | 94 ft | 20 kts | 83° |
| 2026-04-20 22:08 | 33.94735 | -118.41712 | 94 ft | 0 kts | 83° |
| 2026-04-20 22:09 | 33.94738 | -118.41687 | 92 ft | 6 kts | 84° |
| 2026-04-20 22:09 | 33.94745 | -118.41607 | 93 ft | 13 kts | 83° |
| 2026-04-20 22:09 | 33.94758 | -118.41487 | 93 ft | 12 kts | 83° |
| 2026-04-20 22:09 | 33.94763 | -118.41446 | 95 ft | 0 kts | 77° |
| 2026-04-20 22:10 | 33.94769 | -118.41422 | 94 ft | 7 kts | 72° |
| 2026-04-20 22:10 | 33.94787 | -118.41317 | 93 ft | 20 kts | 82° |
| 2026-04-20 22:10 | 33.94811 | -118.41109 | 94 ft | 26 kts | 84° |
| 2026-04-20 22:11 | 33.94832 | -118.40901 | 95 ft | 24 kts | 82° |
| 2026-04-20 22:11 | 33.94852 | -118.40704 | 93 ft | 23 kts | 83° |
| 2026-04-20 22:11 | 33.94797 | -118.40591 | 94 ft | 17 kts | 166° |
| 2026-04-20 22:11 | 33.94695 | -118.40572 | 92 ft | 11 kts | 173° |
| 2026-04-20 22:12 | 33.94647 | -118.40592 | 92 ft | 5 kts | 252° |
| 2026-04-20 22:12 | 33.94642 | -118.40630 | 92 ft | 3 kts | 262° |
| 2026-04-20 22:12 | 33.94641 | -118.40643 | 92 ft | 1 kts | 262° |
| 2026-04-20 22:12 | 33.94640 | -118.40646 | 92 ft | 1 kts | 263° |
| 2026-04-20 22:13 | 33.94640 | -118.40647 | 92 ft | 0 kts | 263° |